Ely, Nevada
Current Conditions -  °F | °C
As of 7:53 PM on Monday 20 Oct 2014 (Local Time) from KELY Reporting Station
Few Clouds Few Clouds  
Wind Chill: 56°   Ceiling: Unl
Heat Index: 56°   Visibility: 10mi
Dew Point: 31°   Wind: 13mph
Humidity: 39%   Direction: 160°SSE
Pressure: 29.99"   Gusts: NA
Location:  39.25°N, 114.87°W
Report Text: KELY 210253Z AUTO 16011KT 10SM FEW090 13/M01 A2999 RMK AO2 SLP103 T01331006 57001
Loading
Personal Weather Stations






























Interactive Weather Map New forecast layout! Learn more

10-Day Weather Forecast

Advertisements
Track Severe Weather on mobile